Terminal Aerodrome Forecast
Issued by NWS

Home | Current Version | Previous Version | Text Only | Print | Product List | Glossary On
Versions: 1 2 3 4 5 6 7 8 9 10 11 12 13 14 15 16 17 18 19 20
000
FTUS43 KGRR 301700
TAFMKG
TAF
KMKG 301740Z 3018/3118 35013KT P6SM -SN OVC035
     FM302100 30007KT P6SM -SN BKN035
     FM310200 24007KT P6SM -SN BKN035=

USA.gov is the U.S. government's official web portal to all federal, state and local government web resources and services.